Time;durP1;ratioP1;P1;durP2;ratioP2;P2;SDS_P1;SDS_P2;PMS_P1;PMS_P2;Temp;Humidity;BMP_temperature;BMP_pressure;BME280_temperature;BME280_humidity;BME280_pressure;Samples;Min_cycle;Max_cycle;Signal;HPM_P1;HPM_P2
2024/02/04 00:00:22;;;;;;;10.20;5.13;;;8.50;99.90;;;;;;4209574;28;20615;-76
2024/02/04 00:02:24;;;;;;;10.40;4.80;;;8.50;99.90;;;;;;4206271;28;20215;-76
2024/02/04 00:04:27;;;;;;;8.30;4.77;;;8.50;99.90;;;;;;4205998;28;20275;-77
2024/02/04 00:06:29;;;;;;;9.83;4.63;;;8.50;99.90;;;;;;4208855;28;20928;-74
2024/02/04 00:08:31;;;;;;;11.63;5.17;;;8.50;99.90;;;;;;4209505;28;20206;-76
2024/02/04 00:10:34;;;;;;;9.27;5.20;;;8.50;99.90;;;;;;4208998;28;20316;-77
2024/02/04 00:12:39;;;;;;;9.80;5.03;;;8.50;99.90;;;;;;4207812;28;20202;-77
2024/02/04 00:14:41;;;;;;;9.60;4.63;;;8.40;99.90;;;;;;4209188;28;20563;-75
2024/02/04 00:16:43;;;;;;;11.23;5.43;;;8.40;99.90;;;;;;4204534;28;20215;-76
2024/02/04 00:18:45;;;;;;;8.80;5.40;;;8.40;99.90;;;;;;4209771;28;20203;-76
2024/02/04 00:20:47;;;;;;;12.23;6.27;;;8.40;99.90;;;;;;4209334;28;20251;-76
2024/02/04 00:22:48;;;;;;;10.73;5.23;;;8.40;99.90;;;;;;4207576;28;20850;-76
2024/02/04 00:24:50;;;;;;;12.37;6.00;;;8.40;99.90;;;;;;4207977;28;20710;-76
2024/02/04 00:26:57;;;;;;;9.40;5.27;;;8.40;99.90;;;;;;4210415;28;20270;-79
2024/02/04 00:28:59;;;;;;;11.53;5.13;;;8.40;99.90;;;;;;4209464;28;20210;-75
2024/02/04 00:31:00;;;;;;;10.30;5.60;;;8.60;99.90;;;;;;4206146;28;20309;-77
2024/02/04 00:33:02;;;;;;;12.07;6.20;;;8.30;99.90;;;;;;4207213;28;20194;-78
2024/02/04 00:35:05;;;;;;;10.30;5.40;;;8.30;99.90;;;;;;4211795;28;20564;-78
2024/02/04 00:37:07;;;;;;;12.33;5.80;;;8.10;99.90;;;;;;4209094;28;20256;-77
2024/02/04 00:39:08;;;;;;;9.83;5.57;;;8.20;99.90;;;;;;4210368;28;20206;-76
2024/02/04 00:41:10;;;;;;;11.93;6.10;;;8.20;99.90;;;;;;4188831;28;20300;-76
2024/02/04 00:43:13;;;;;;;11.03;5.87;;;8.10;99.90;;;;;;4209643;28;20255;-77
2024/02/04 00:45:16;;;;;;;9.90;5.53;;;8.10;99.90;;;;;;4202815;28;20657;-75
2024/02/04 00:47:18;;;;;;;11.10;5.50;;;8.10;99.90;;;;;;4209821;28;20280;-75
2024/02/04 00:49:20;;;;;;;11.90;6.10;;;8.10;99.90;;;;;;4203785;28;20668;-76
2024/02/04 00:51:23;;;;;;;12.00;5.83;;;8.10;99.90;;;;;;4207399;28;20237;-75
2024/02/04 00:53:25;;;;;;;13.40;6.43;;;8.10;99.90;;;;;;4209258;28;20205;-75
2024/02/04 00:55:30;;;;;;;12.33;6.43;;;8.10;99.90;;;;;;4209717;28;20629;-76
2024/02/04 00:57:32;;;;;;;10.67;5.83;;;8.10;99.90;;;;;;4209533;28;20762;-75
2024/02/04 00:59:37;;;;;;;11.53;6.20;;;8.10;99.90;;;;;;4208174;28;20246;-76
2024/02/04 01:01:39;;;;;;;14.07;6.30;;;8.10;99.90;;;;;;4212903;28;20282;-77
2024/02/04 01:03:43;;;;;;;12.23;5.93;;;8.10;99.90;;;;;;4209500;28;20205;-80
2024/02/04 01:05:44;;;;;;;12.43;5.50;;;8.10;99.90;;;;;;4213688;28;20638;-78
2024/02/04 01:07:46;;;;;;;14.70;6.30;;;8.10;99.90;;;;;;4210219;28;20198;-75
2024/02/04 01:09:48;;;;;;;12.03;6.27;;;8.10;99.90;;;;;;4204036;28;20258;-75
2024/02/04 01:11:57;;;;;;;15.47;6.57;;;8.00;99.90;;;;;;4195928;28;20199;-78
2024/02/04 01:13:59;;;;;;;12.93;5.93;;;8.10;99.90;;;;;;4207167;28;20714;-78
2024/02/04 01:16:03;;;;;;;13.43;5.83;;;8.00;99.90;;;;;;4212169;28;20285;-77
2024/02/04 01:18:05;;;;;;;11.87;5.87;;;8.00;99.90;;;;;;4210727;28;20217;-75
2024/02/04 01:20:08;;;;;;;15.40;6.53;;;8.10;99.90;;;;;;4195546;28;20228;-75
2024/02/04 01:22:10;;;;;;;17.33;6.47;;;8.00;99.90;;;;;;4210544;28;20205;-75
2024/02/04 01:24:12;;;;;;;17.20;6.73;;;8.10;99.90;;;;;;4212602;28;20214;-75
2024/02/04 01:26:15;;;;;;;11.93;6.43;;;8.00;99.90;;;;;;4208506;28;20229;-76
2024/02/04 01:28:17;;;;;;;15.23;6.00;;;8.00;99.90;;;;;;4208285;28;20206;-75
2024/02/04 01:30:19;;;;;;;13.90;6.37;;;8.00;99.90;;;;;;4191890;28;20260;-76
2024/02/04 01:32:25;;;;;;;15.67;6.77;;;8.00;99.90;;;;;;4212530;28;20690;-77
2024/02/04 01:34:27;;;;;;;12.13;6.20;;;8.00;99.90;;;;;;4191564;28;20294;-75
2024/02/04 01:36:29;;;;;;;16.30;6.27;;;8.10;99.90;;;;;;4211576;28;20241;-77
2024/02/04 01:38:30;;;;;;;13.53;6.63;;;7.90;99.90;;;;;;4192723;28;20212;-76
2024/02/04 01:40:32;;;;;;;17.67;6.63;;;8.00;99.90;;;;;;4207020;28;20716;-77
2024/02/04 01:42:36;;;;;;;13.40;6.30;;;8.00;99.90;;;;;;4211088;28;20719;-77
2024/02/04 01:44:38;;;;;;;13.70;6.60;;;8.00;99.90;;;;;;4212816;28;20680;-77
2024/02/04 01:46:40;;;;;;;11.83;6.37;;;8.00;99.90;;;;;;4191581;28;20269;-77
2024/02/04 01:48:44;;;;;;;20.53;8.13;;;8.00;99.90;;;;;;4205475;28;20304;-76
2024/02/04 01:50:47;;;;;;;12.93;6.80;;;8.00;99.90;;;;;;4212351;28;20792;-74
2024/02/04 01:52:50;;;;;;;18.30;7.03;;;8.00;99.90;;;;;;4210148;28;20271;-75
2024/02/04 01:54:53;;;;;;;13.97;6.97;;;8.00;99.90;;;;;;4210542;28;20224;-75
2024/02/04 01:56:55;;;;;;;15.70;7.00;;;8.00;99.90;;;;;;4202651;28;20212;-76
2024/02/04 01:58:58;;;;;;;16.43;7.07;;;8.00;99.90;;;;;;4209818;28;20193;-75
2024/02/04 02:01:00;;;;;;;13.10;6.80;;;8.00;99.90;;;;;;4210847;28;20919;-76
2024/02/04 02:03:06;;;;;;;13.80;6.87;;;8.00;99.90;;;;;;4209260;28;20212;-76
2024/02/04 02:05:09;;;;;;;16.87;6.60;;;8.00;99.90;;;;;;4210450;28;20215;-76
2024/02/04 02:07:12;;;;;;;18.63;7.40;;;8.00;99.90;;;;;;4208328;28;20823;-77
2024/02/04 02:09:14;;;;;;;24.27;8.20;;;8.00;99.90;;;;;;4209905;28;20217;-74
2024/02/04 02:11:21;;;;;;;16.73;8.13;;;8.10;99.90;;;;;;4203524;28;20598;-76
2024/02/04 02:13:27;;;;;;;15.13;7.20;;;8.10;99.90;;;;;;4206897;28;20209;-74
2024/02/04 02:15:36;;;;;;;19.70;9.00;;;8.10;99.90;;;;;;4191489;28;20228;-76
2024/02/04 02:17:49;;;;;;;19.97;8.17;;;8.00;99.90;;;;;;4193066;28;20785;-74
2024/02/04 02:19:55;;;;;;;19.47;8.50;;;8.00;99.90;;;;;;4206356;28;20225;-78
2024/02/04 02:22:05;;;;;;;19.80;9.07;;;8.10;99.90;;;;;;4209666;28;20629;-76
2024/02/04 02:24:15;;;;;;;26.60;8.47;;;8.00;99.90;;;;;;4193535;28;20195;-74
2024/02/04 02:26:19;;;;;;;19.30;8.47;;;8.00;99.90;;;;;;4209047;28;20700;-74
2024/02/04 02:28:20;;;;;;;19.60;7.73;;;8.00;99.90;;;;;;4210103;28;20235;-75
2024/02/04 02:30:22;;;;;;;19.57;8.47;;;8.00;99.90;;;;;;4190881;28;20292;-74
2024/02/04 02:32:25;;;;;;;19.23;7.83;;;8.00;99.90;;;;;;4211289;28;20230;-74
2024/02/04 02:34:27;;;;;;;19.73;8.00;;;8.00;99.90;;;;;;4210030;28;20277;-75
2024/02/04 02:36:34;;;;;;;18.23;7.67;;;8.00;99.90;;;;;;4216533;28;20189;-75
2024/02/04 02:38:45;;;;;;;21.27;8.03;;;7.90;99.90;;;;;;4189941;28;20684;-74
2024/02/04 02:40:48;;;;;;;17.57;7.10;;;7.90;99.90;;;;;;4209867;28;20245;-74
2024/02/04 02:42:54;;;;;;;34.97;8.60;;;7.90;99.90;;;;;;4208881;28;20194;-75
2024/02/04 02:44:56;;;;;;;29.27;8.30;;;7.90;99.90;;;;;;4209338;28;20213;-74
2024/02/04 02:46:59;;;;;;;16.33;7.43;;;7.80;99.90;;;;;;4202800;28;20233;-76
2024/02/04 02:49:01;;;;;;;20.70;8.73;;;7.80;99.90;;;;;;4208980;28;20217;-75
2024/02/04 02:51:03;;;;;;;19.30;7.50;;;7.80;99.90;;;;;;4192620;28;20226;-77
2024/02/04 02:53:05;;;;;;;18.30;7.37;;;7.80;99.90;;;;;;4211271;28;20633;-76
2024/02/04 02:55:08;;;;;;;18.00;7.23;;;7.70;99.90;;;;;;4212360;28;20233;-75
2024/02/04 02:57:10;;;;;;;17.87;7.43;;;7.70;99.90;;;;;;4216791;28;21116;-74
2024/02/04 02:59:13;;;;;;;19.47;7.73;;;7.70;99.90;;;;;;4217168;28;20213;-74
2024/02/04 03:01:15;;;;;;;16.33;7.43;;;7.70;99.90;;;;;;4223927;28;20269;-74
2024/02/04 03:03:16;;;;;;;17.57;7.30;;;7.70;99.90;;;;;;4216823;28;20198;-75
2024/02/04 03:05:18;;;;;;;17.07;6.90;;;7.60;99.90;;;;;;4214645;28;20221;-74
2024/02/04 03:07:19;;;;;;;22.20;7.63;;;7.60;99.90;;;;;;4211579;28;20216;-74
2024/02/04 03:09:21;;;;;;;18.83;7.77;;;7.60;99.90;;;;;;4198089;28;20229;-75
2024/02/04 03:11:23;;;;;;;20.00;8.40;;;7.60;99.90;;;;;;4212099;28;20288;-74
2024/02/04 03:13:25;;;;;;;19.23;7.67;;;7.60;99.90;;;;;;4207529;28;20238;-74
2024/02/04 03:15:28;;;;;;;21.23;8.60;;;7.70;99.90;;;;;;4192937;28;20205;-74
2024/02/04 03:17:30;;;;;;;20.70;8.33;;;7.70;99.90;;;;;;4209078;28;20256;-74
2024/02/04 03:19:32;;;;;;;21.50;8.10;;;7.70;99.90;;;;;;4211758;28;20585;-73
2024/02/04 03:21:34;;;;;;;19.93;8.13;;;7.70;99.90;;;;;;4209818;28;20225;-75
2024/02/04 03:23:36;;;;;;;19.00;7.60;;;7.70;99.90;;;;;;4204037;28;20640;-76
2024/02/04 03:25:38;;;;;;;17.77;7.50;;;7.70;99.90;;;;;;4202003;28;20637;-74
2024/02/04 03:27:41;;;;;;;16.53;6.93;;;7.70;99.90;;;;;;4208210;28;20227;-74
2024/02/04 03:29:42;;;;;;;19.00;6.97;;;7.70;99.90;;;;;;4194873;28;20257;-74
2024/02/04 03:31:46;;;;;;;17.30;7.60;;;7.70;99.90;;;;;;4209673;28;20202;-75
2024/02/04 03:33:48;;;;;;;16.13;6.63;;;7.70;99.90;;;;;;4208176;28;20206;-75
2024/02/04 03:35:49;;;;;;;16.47;6.90;;;7.70;99.90;;;;;;4209703;28;20193;-75
2024/02/04 03:37:51;;;;;;;13.50;5.87;;;7.70;99.90;;;;;;4210584;28;20218;-74
2024/02/04 03:39:53;;;;;;;13.70;6.10;;;7.70;99.90;;;;;;4209213;28;20232;-76
2024/02/04 03:41:54;;;;;;;13.23;5.67;;;7.80;99.90;;;;;;4211047;28;20201;-77
2024/02/04 03:43:56;;;;;;;13.90;5.90;;;7.80;99.90;;;;;;4207156;28;20197;-75
2024/02/04 03:45:59;;;;;;;12.43;5.97;;;7.80;99.90;;;;;;4208889;28;20194;-75
2024/02/04 03:48:03;;;;;;;10.00;4.83;;;7.70;99.90;;;;;;4210770;28;20304;-75
2024/02/04 03:50:05;;;;;;;10.43;5.00;;;7.80;99.90;;;;;;4208208;28;20239;-74
2024/02/04 03:52:06;;;;;;;11.67;5.10;;;7.80;99.90;;;;;;4209058;28;20297;-75
2024/02/04 03:54:08;;;;;;;13.30;5.30;;;7.80;99.90;;;;;;4193034;28;20875;-76
2024/02/04 03:56:10;;;;;;;13.00;4.77;;;7.70;99.90;;;;;;4194229;28;20289;-74
2024/02/04 03:58:12;;;;;;;9.77;4.83;;;7.80;99.90;;;;;;4214533;28;20281;-74
2024/02/04 04:00:14;;;;;;;10.23;5.20;;;7.80;99.90;;;;;;4212571;28;20263;-73
2024/02/04 04:02:15;;;;;;;9.80;4.67;;;7.90;99.90;;;;;;4209347;28;20586;-74
2024/02/04 04:04:19;;;;;;;9.43;4.00;;;7.80;99.90;;;;;;4209304;28;20194;-74
2024/02/04 04:06:20;;;;;;;10.93;5.10;;;7.90;99.90;;;;;;4209843;28;20232;-77
2024/02/04 04:08:22;;;;;;;12.20;4.73;;;7.90;99.90;;;;;;4208875;28;20707;-75
2024/02/04 04:10:24;;;;;;;9.47;4.93;;;7.90;99.90;;;;;;4210038;28;20232;-77
2024/02/04 04:12:26;;;;;;;7.90;4.00;;;7.80;99.90;;;;;;4207946;28;20243;-77
2024/02/04 04:14:28;;;;;;;11.53;4.70;;;7.90;99.90;;;;;;4209939;28;20202;-77
2024/02/04 04:16:30;;;;;;;7.20;3.70;;;7.90;99.90;;;;;;4208088;28;20305;-77
2024/02/04 04:18:31;;;;;;;8.53;4.30;;;7.90;99.90;;;;;;4209024;28;20197;-78
2024/02/04 04:20:34;;;;;;;11.23;4.43;;;7.90;99.90;;;;;;4206523;28;20708;-77
2024/02/04 04:22:36;;;;;;;9.63;4.43;;;7.90;99.90;;;;;;4212499;28;20201;-78
2024/02/04 04:24:39;;;;;;;10.17;4.47;;;7.90;99.90;;;;;;4211319;28;20197;-76
2024/02/04 04:26:41;;;;;;;10.17;4.40;;;7.90;99.90;;;;;;4204176;28;20209;-74
2024/02/04 04:28:43;;;;;;;8.63;4.30;;;7.90;99.90;;;;;;4210461;28;20229;-75
2024/02/04 04:30:44;;;;;;;14.40;5.90;;;7.90;99.90;;;;;;4209339;28;20246;-75
2024/02/04 04:32:46;;;;;;;10.57;4.40;;;7.90;99.90;;;;;;4211283;28;20201;-76
2024/02/04 04:34:48;;;;;;;13.67;5.33;;;7.90;99.90;;;;;;4211128;28;20306;-74
2024/02/04 04:36:51;;;;;;;9.63;5.03;;;7.90;99.90;;;;;;4213469;28;20226;-74
2024/02/04 04:38:53;;;;;;;13.70;6.30;;;7.90;99.90;;;;;;4214003;28;20856;-75
2024/02/04 04:40:55;;;;;;;12.00;5.60;;;8.00;99.90;;;;;;4213925;28;20225;-76
2024/02/04 04:42:59;;;;;;;15.07;5.60;;;8.00;99.90;;;;;;4207860;28;20308;-75
2024/02/04 04:45:00;;;;;;;13.77;6.23;;;8.00;99.90;;;;;;4211170;28;20265;-78
2024/02/04 04:47:02;;;;;;;16.17;6.50;;;8.00;99.90;;;;;;4213278;28;20228;-73
2024/02/04 04:49:04;;;;;;;15.17;6.53;;;8.00;99.90;;;;;;4213816;28;20675;-74
2024/02/04 04:51:08;;;;;;;15.33;6.40;;;8.00;99.90;;;;;;4213381;28;20205;-74
2024/02/04 04:53:12;;;;;;;17.50;6.40;;;7.90;99.90;;;;;;4219280;28;20218;-74
2024/02/04 04:55:14;;;;;;;14.70;6.53;;;7.90;99.90;;;;;;4211207;28;20205;-74
2024/02/04 04:57:16;;;;;;;15.93;6.80;;;8.00;99.90;;;;;;4211469;28;20205;-74
2024/02/04 04:59:18;;;;;;;16.83;7.43;;;7.90;99.90;;;;;;4209828;28;20199;-75
2024/02/04 05:01:19;;;;;;;24.23;7.43;;;7.90;99.90;;;;;;4213035;28;20205;-75
2024/02/04 05:03:20;;;;;;;13.40;6.20;;;7.90;99.90;;;;;;4212883;28;20700;-76
2024/02/04 05:05:22;;;;;;;13.53;6.40;;;7.90;99.90;;;;;;4211800;28;20207;-75
2024/02/04 05:07:23;;;;;;;18.77;6.20;;;7.90;99.90;;;;;;4212564;28;20220;-74
2024/02/04 05:09:27;;;;;;;19.73;6.83;;;7.90;99.90;;;;;;4194120;28;20582;-77
2024/02/04 05:11:28;;;;;;;18.73;6.57;;;8.00;99.90;;;;;;4213093;28;20198;-75
2024/02/04 05:13:30;;;;;;;16.70;6.40;;;7.90;99.90;;;;;;4211666;28;20200;-75
2024/02/04 05:15:33;;;;;;;14.50;5.87;;;7.90;99.90;;;;;;4209624;28;20809;-75
2024/02/04 05:17:35;;;;;;;15.73;5.97;;;7.90;99.90;;;;;;4212115;28;20206;-75
2024/02/04 05:19:37;;;;;;;15.60;6.37;;;7.90;99.90;;;;;;4212564;28;20813;-74
2024/02/04 05:21:40;;;;;;;16.97;6.37;;;7.90;99.90;;;;;;4210022;28;20226;-74
2024/02/04 05:23:41;;;;;;;15.20;6.60;;;7.90;99.90;;;;;;4212505;28;20584;-75
2024/02/04 05:25:44;;;;;;;19.03;6.47;;;7.90;99.90;;;;;;4208528;28;20206;-74
2024/02/04 05:27:46;;;;;;;19.83;6.70;;;7.90;99.90;;;;;;4192823;28;20846;-76
2024/02/04 05:29:48;;;;;;;15.23;6.70;;;7.90;99.90;;;;;;4211292;28;20722;-74
2024/02/04 05:31:49;;;;;;;15.93;6.20;;;8.00;99.90;;;;;;4212926;28;20672;-73
2024/02/04 05:33:53;;;;;;;16.27;6.57;;;7.90;99.90;;;;;;4201548;28;20203;-75
2024/02/04 05:35:55;;;;;;;20.00;7.40;;;7.90;99.90;;;;;;4212833;28;20707;-73
2024/02/04 05:37:59;;;;;;;23.60;7.50;;;7.90;99.90;;;;;;4206609;28;20746;-74
2024/02/04 05:40:01;;;;;;;17.70;7.03;;;7.70;99.90;;;;;;4212830;28;20605;-74
2024/02/04 05:42:05;;;;;;;17.17;6.70;;;7.90;99.90;;;;;;4211837;28;20238;-74
2024/02/04 05:44:08;;;;;;;16.27;6.40;;;7.90;99.90;;;;;;4209629;28;20626;-75
2024/02/04 05:46:10;;;;;;;13.53;6.13;;;7.90;99.90;;;;;;4211034;28;20227;-76
2024/02/04 05:48:13;;;;;;;14.00;5.80;;;7.90;99.90;;;;;;4209491;28;20220;-74
2024/02/04 05:50:14;;;;;;;14.47;5.50;;;7.90;99.90;;;;;;4209858;28;20255;-75
2024/02/04 05:52:16;;;;;;;15.97;5.87;;;7.90;99.90;;;;;;4211738;28;20202;-73
2024/02/04 05:54:18;;;;;;;16.60;5.83;;;7.90;99.90;;;;;;4210222;28;20576;-73
2024/02/04 05:56:20;;;;;;;15.90;5.87;;;7.90;99.90;;;;;;4210782;28;20284;-75
2024/02/04 05:58:23;;;;;;;12.90;5.50;;;7.90;99.90;;;;;;4211695;28;20220;-74
2024/02/04 06:00:26;;;;;;;16.33;5.90;;;7.90;99.90;;;;;;4210780;28;20237;-75
2024/02/04 06:02:27;;;;;;;14.23;6.07;;;7.90;99.90;;;;;;4211793;28;20198;-77
2024/02/04 06:04:29;;;;;;;14.43;6.07;;;7.90;99.90;;;;;;4208428;28;20702;-75
2024/02/04 06:06:31;;;;;;;16.83;6.80;;;7.90;99.90;;;;;;4206279;28;20198;-75
2024/02/04 06:08:33;;;;;;;18.43;7.13;;;7.90;99.90;;;;;;4211698;28;20217;-74
2024/02/04 06:10:35;;;;;;;15.40;6.63;;;7.90;99.90;;;;;;4206743;28;20275;-76
2024/02/04 06:12:40;;;;;;;15.93;6.90;;;7.90;99.90;;;;;;4192352;28;20199;-77
2024/02/04 06:14:43;;;;;;;13.70;6.10;;;8.00;99.90;;;;;;4210393;28;20201;-73
2024/02/04 06:16:45;;;;;;;19.97;7.67;;;7.90;99.90;;;;;;4207808;28;20232;-76
2024/02/04 06:18:47;;;;;;;16.57;6.90;;;8.00;99.90;;;;;;4206725;28;20248;-77
2024/02/04 06:20:49;;;;;;;16.40;6.73;;;8.00;99.90;;;;;;4211341;28;20214;-75
2024/02/04 06:22:51;;;;;;;14.73;6.67;;;8.00;99.90;;;;;;4212684;28;20237;-73
2024/02/04 06:24:53;;;;;;;18.40;6.63;;;8.00;99.90;;;;;;4211681;28;20588;-74
2024/02/04 06:26:53;;;;;;;13.73;6.07;;;8.00;99.90;;;;;;4210602;28;20247;-74
2024/02/04 06:28:55;;;;;;;13.20;5.47;;;8.10;99.90;;;;;;4210737;28;20219;-73
2024/02/04 06:30:58;;;;;;;9.03;4.73;;;8.10;99.90;;;;;;4210266;28;20229;-75
2024/02/04 06:33:00;;;;;;;9.17;5.07;;;8.10;99.90;;;;;;4193475;28;20209;-75
2024/02/04 06:35:02;;;;;;;12.03;5.13;;;8.10;99.90;;;;;;4212220;28;20202;-76
2024/02/04 06:37:04;;;;;;;9.13;4.47;;;8.20;99.90;;;;;;4208091;28;20211;-75
2024/02/04 06:39:08;;;;;;;9.10;4.90;;;8.20;99.90;;;;;;4209763;28;20214;-77
2024/02/04 06:41:09;;;;;;;8.87;4.80;;;8.20;99.90;;;;;;4209401;28;20212;-76
2024/02/04 06:43:11;;;;;;;7.30;3.83;;;8.20;99.90;;;;;;4211963;28;20202;-74
2024/02/04 06:45:13;;;;;;;6.40;3.83;;;8.20;99.90;;;;;;4207245;28;20234;-77
2024/02/04 06:47:16;;;;;;;7.37;3.23;;;8.20;99.90;;;;;;4210769;28;20653;-77
2024/02/04 06:49:19;;;;;;;4.70;3.10;;;8.30;99.90;;;;;;4192113;28;20683;-78
2024/02/04 06:51:20;;;;;;;6.37;3.20;;;8.30;99.90;;;;;;4211513;28;20231;-78
2024/02/04 06:53:22;;;;;;;4.77;3.07;;;8.60;99.90;;;;;;4208410;28;20199;-77
2024/02/04 06:55:24;;;;;;;6.77;3.00;;;8.30;99.90;;;;;;4208528;28;20227;-77
2024/02/04 06:57:26;;;;;;;4.47;2.60;;;8.30;99.90;;;;;;4192121;28;20208;-78
2024/02/04 06:59:27;;;;;;;3.97;2.60;;;8.30;99.90;;;;;;4189984;28;20234;-77
2024/02/04 07:01:29;;;;;;;3.80;2.60;;;8.40;99.90;;;;;;4210956;28;20211;-78
2024/02/04 07:03:33;;;;;;;3.37;2.40;;;8.40;99.90;;;;;;4210733;28;20221;-77
2024/02/04 07:05:34;;;;;;;6.13;2.93;;;8.40;99.90;;;;;;4209658;28;20203;-78
2024/02/04 07:07:36;;;;;;;3.13;2.13;;;8.40;99.90;;;;;;4210636;28;20223;-79
2024/02/04 07:09:38;;;;;;;4.07;2.43;;;8.40;99.90;;;;;;4211667;28;20228;-78
2024/02/04 07:11:40;;;;;;;4.30;2.50;;;8.30;99.90;;;;;;4209485;28;20201;-79
2024/02/04 07:13:42;;;;;;;3.20;2.17;;;8.40;99.90;;;;;;4212129;28;20205;-77
2024/02/04 07:15:43;;;;;;;5.50;2.77;;;8.40;99.90;;;;;;4207249;28;20195;-78
2024/02/04 07:17:44;;;;;;;4.50;2.90;;;8.40;99.90;;;;;;4211232;28;20205;-78
2024/02/04 07:19:48;;;;;;;4.30;2.73;;;8.40;99.90;;;;;;4208618;28;20329;-77
2024/02/04 07:21:50;;;;;;;6.33;3.63;;;8.40;99.90;;;;;;4210904;28;20203;-77
2024/02/04 07:23:52;;;;;;;7.17;4.67;;;8.50;99.90;;;;;;4208832;28;20289;-78
2024/02/04 07:25:54;;;;;;;14.93;4.57;;;8.50;99.90;;;;;;4208940;28;20203;-78
2024/02/04 07:27:56;;;;;;;10.00;5.20;;;8.50;99.90;;;;;;4211253;28;20219;-78
2024/02/04 07:29:57;;;;;;;10.33;5.50;;;8.50;99.90;;;;;;4208141;28;20228;-74
2024/02/04 07:31:59;;;;;;;11.83;5.93;;;8.50;99.90;;;;;;4209623;28;20201;-76
2024/02/04 07:34:01;;;;;;;9.87;5.97;;;8.50;99.90;;;;;;4208285;28;20311;-77
2024/02/04 07:36:06;;;;;;;17.63;7.50;;;8.50;99.90;;;;;;4196848;28;20567;-76
2024/02/04 07:38:07;;;;;;;11.37;6.00;;;8.50;99.90;;;;;;4209107;28;20777;-77
2024/02/04 07:40:10;;;;;;;14.73;6.50;;;8.50;99.90;;;;;;4209850;28;20266;-77
2024/02/04 07:42:15;;;;;;;14.00;6.57;;;8.50;99.90;;;;;;4211203;28;20258;-78
2024/02/04 07:44:17;;;;;;;13.23;6.60;;;8.50;99.90;;;;;;4215477;28;20206;-77
2024/02/04 07:46:19;;;;;;;12.97;5.97;;;8.50;99.90;;;;;;4215728;28;20215;-75
2024/02/04 07:48:21;;;;;;;9.63;5.87;;;8.50;99.90;;;;;;4217111;28;20280;-74
2024/02/04 07:50:23;;;;;;;9.73;5.70;;;8.60;99.90;;;;;;4217748;28;20285;-76
2024/02/04 07:52:26;;;;;;;10.40;5.43;;;8.50;99.90;;;;;;4215472;28;20412;-77
2024/02/04 07:54:28;;;;;;;8.20;4.77;;;8.50;99.90;;;;;;4215073;28;20205;-77
2024/02/04 07:56:30;;;;;;;7.80;4.70;;;8.60;99.90;;;;;;4210898;28;20210;-77
2024/02/04 07:58:32;;;;;;;6.53;4.00;;;8.60;99.90;;;;;;4212334;28;20198;-76
2024/02/04 08:00:34;;;;;;;9.53;4.20;;;8.60;99.90;;;;;;4208806;28;20248;-76
2024/02/04 08:02:36;;;;;;;8.77;4.50;;;8.60;99.90;;;;;;4210190;28;20231;-74
2024/02/04 08:04:40;;;;;;;8.77;5.13;;;8.60;99.90;;;;;;4210949;28;20205;-74
2024/02/04 08:06:42;;;;;;;6.93;4.20;;;8.70;99.90;;;;;;4209358;28;20294;-75
2024/02/04 08:08:47;;;;;;;6.03;3.60;;;8.70;99.90;;;;;;4208506;28;20246;-76
2024/02/04 08:10:49;;;;;;;5.77;3.03;;;8.70;99.90;;;;;;4211413;28;20233;-76
2024/02/04 08:12:53;;;;;;;5.03;2.83;;;8.70;99.90;;;;;;4206602;28;20233;-80
2024/02/04 08:14:55;;;;;;;5.50;2.80;;;8.70;99.90;;;;;;4214162;28;20660;-79
2024/02/04 08:16:57;;;;;;;3.87;2.27;;;8.70;99.90;;;;;;4206810;28;20601;-77
2024/02/04 08:18:58;;;;;;;2.63;1.93;;;8.70;99.90;;;;;;4209607;28;20205;-78
2024/02/04 08:21:00;;;;;;;2.63;1.53;;;8.70;99.90;;;;;;4191520;28;20216;-74
2024/02/04 08:23:01;;;;;;;3.53;1.33;;;8.70;99.90;;;;;;4210966;28;20303;-75
2024/02/04 08:25:05;;;;;;;1.80;1.30;;;8.70;99.90;;;;;;4214216;28;20211;-78
2024/02/04 08:27:07;;;;;;;1.47;1.27;;;8.80;99.90;;;;;;4211751;28;20210;-79
2024/02/04 08:29:10;;;;;;;1.43;0.97;;;8.70;99.90;;;;;;4212375;28;20230;-78
2024/02/04 08:31:12;;;;;;;1.87;1.00;;;9.10;99.90;;;;;;4211797;28;20214;-79
2024/02/04 08:33:14;;;;;;;1.87;1.20;;;8.80;99.90;;;;;;4195386;28;20265;-79
2024/02/04 08:35:16;;;;;;;2.13;1.13;;;8.90;99.90;;;;;;4214950;28;20260;-79
2024/02/04 08:37:17;;;;;;;2.30;1.27;;;8.80;99.90;;;;;;4212556;28;20235;-78
2024/02/04 08:39:19;;;;;;;2.37;1.20;;;8.80;99.90;;;;;;4210186;28;20195;-78
2024/02/04 08:41:22;;;;;;;2.83;1.43;;;8.80;99.90;;;;;;4215736;28;20682;-78
2024/02/04 08:43:24;;;;;;;1.37;1.10;;;8.90;99.90;;;;;;4215801;28;20745;-78
2024/02/04 08:45:27;;;;;;;2.53;1.30;;;8.90;99.90;;;;;;4214011;28;20195;-76
2024/02/04 08:47:29;;;;;;;3.57;1.60;;;8.90;99.90;;;;;;4214772;28;20254;-79
2024/02/04 08:49:31;;;;;;;2.73;1.50;;;9.10;99.90;;;;;;4194688;28;20224;-78
2024/02/04 08:51:33;;;;;;;3.33;1.47;;;8.90;99.90;;;;;;4214303;28;20200;-78
2024/02/04 08:53:34;;;;;;;2.87;1.40;;;8.70;99.90;;;;;;4212033;28;20732;-79
2024/02/04 08:55:36;;;;;;;1.67;1.20;;;8.90;99.90;;;;;;4195550;28;20215;-78
2024/02/04 08:57:40;;;;;;;3.20;1.20;;;8.80;99.90;;;;;;4215024;28;20205;-77
2024/02/04 08:59:42;;;;;;;1.93;1.23;;;8.90;99.90;;;;;;4214081;28;20752;-77
2024/02/04 09:01:44;;;;;;;1.67;1.13;;;8.80;99.90;;;;;;4196934;28;20270;-79
2024/02/04 09:03:46;;;;;;;1.27;0.90;;;8.80;99.90;;;;;;4216165;28;20620;-78
2024/02/04 09:05:48;;;;;;;1.77;1.17;;;8.80;99.90;;;;;;4214288;28;20703;-78
2024/02/04 09:07:51;;;;;;;2.00;1.20;;;8.80;99.90;;;;;;4215282;28;20235;-79
2024/02/04 09:09:53;;;;;;;1.17;1.00;;;8.90;99.90;;;;;;4213330;28;20790;-77
2024/02/04 09:11:57;;;;;;;3.40;1.10;;;8.90;99.90;;;;;;4214704;28;20737;-78
2024/02/04 09:14:00;;;;;;;1.60;1.00;;;8.90;99.90;;;;;;4196879;28;20780;-77
2024/02/04 09:16:20;;;;;;;1.60;1.20;;;9.00;99.90;;;;;;4213282;28;20196;-77
2024/02/04 09:18:22;;;;;;;2.07;1.10;;;8.90;99.90;;;;;;4194451;28;20726;-77
2024/02/04 09:20:24;;;;;;;1.77;1.20;;;8.90;99.90;;;;;;4213740;28;20273;-78
2024/02/04 09:22:25;;;;;;;2.07;1.33;;;8.80;99.90;;;;;;4214252;28;20897;-80
2024/02/04 09:24:27;;;;;;;2.10;1.40;;;8.90;99.90;;;;;;4214826;28;20205;-79
2024/02/04 09:26:29;;;;;;;3.40;1.50;;;8.90;99.90;;;;;;4214932;28;20232;-79
2024/02/04 09:28:30;;;;;;;2.80;1.80;;;8.90;99.90;;;;;;4202599;28;20203;-85
2024/02/04 09:30:33;;;;;;;2.93;1.80;;;8.90;99.90;;;;;;4211121;28;20228;-83
2024/02/04 09:32:34;;;;;;;3.50;2.23;;;8.90;99.90;;;;;;4207324;28;20690;-86
2024/02/04 09:34:36;;;;;;;3.70;2.17;;;8.90;99.90;;;;;;4194744;28;20194;-81
2024/02/04 09:36:38;;;;;;;3.77;2.43;;;9.20;99.90;;;;;;4198452;28;20212;-80
2024/02/04 09:38:40;;;;;;;3.87;2.40;;;8.80;99.90;;;;;;4198880;28;20758;-82
2024/02/04 09:40:42;;;;;;;3.40;2.33;;;8.80;99.90;;;;;;4198584;28;20697;-81
2024/02/04 09:42:44;;;;;;;3.63;2.20;;;8.80;99.90;;;;;;4208445;28;20209;-78
2024/02/04 09:44:46;;;;;;;3.67;2.17;;;8.80;99.90;;;;;;4212743;28;20194;-79
2024/02/04 09:46:50;;;;;;;4.33;2.00;;;8.80;99.90;;;;;;4213115;28;20269;-80
2024/02/04 09:48:54;;;;;;;3.53;1.90;;;8.80;99.90;;;;;;4211610;28;20216;-79
2024/02/04 09:50:56;;;;;;;3.20;1.97;;;8.70;99.90;;;;;;4214492;28;20242;-81
2024/02/04 09:52:59;;;;;;;3.33;2.00;;;8.80;99.90;;;;;;4215444;28;20576;-80
2024/02/04 09:55:03;;;;;;;3.80;1.90;;;8.80;99.90;;;;;;4218392;28;20198;-78
2024/02/04 09:57:04;;;;;;;3.60;1.60;;;8.80;99.90;;;;;;4215874;28;20205;-79
2024/02/04 09:59:09;;;;;;;3.00;1.70;;;8.80;99.90;;;;;;4215909;28;20238;-79
2024/02/04 10:01:13;;;;;;;3.00;1.60;;;8.80;99.90;;;;;;4214891;28;20210;-79
2024/02/04 10:03:17;;;;;;;4.80;2.30;;;8.80;99.90;;;;;;4212402;28;20581;-77
2024/02/04 10:05:19;;;;;;;2.83;1.90;;;8.80;99.90;;;;;;4200246;28;20210;-78
2024/02/04 10:07:21;;;;;;;3.50;2.00;;;8.80;99.90;;;;;;4218478;28;20207;-77
2024/02/04 10:09:23;;;;;;;2.73;1.63;;;8.80;99.90;;;;;;4216091;28;20207;-78
2024/02/04 10:11:24;;;;;;;3.00;1.63;;;8.80;99.90;;;;;;4202248;28;20222;-78
2024/02/04 10:13:26;;;;;;;4.60;2.00;;;8.80;99.90;;;;;;4214772;28;20229;-78
2024/02/04 10:15:32;;;;;;;3.33;1.87;;;8.90;99.90;;;;;;4215734;28;20204;-84
2024/02/04 10:17:33;;;;;;;5.20;2.30;;;8.90;99.90;;;;;;4195139;28;20609;-78
2024/02/04 10:19:36;;;;;;;5.03;2.40;;;8.90;99.90;;;;;;4196806;28;20243;-80
2024/02/04 10:21:37;;;;;;;3.90;2.20;;;9.00;99.90;;;;;;4200372;28;20204;-81
2024/02/04 10:23:39;;;;;;;5.83;2.70;;;8.90;99.90;;;;;;4197817;28;20234;-80
2024/02/04 10:25:41;;;;;;;4.87;2.30;;;9.00;99.90;;;;;;4213712;28;20211;-80
2024/02/04 10:27:46;;;;;;;6.10;2.70;;;9.00;99.90;;;;;;4209987;28;20259;-78
2024/02/04 10:29:47;;;;;;;6.03;2.50;;;9.00;99.90;;;;;;4211541;28;20337;-78
2024/02/04 10:31:54;;;;;;;4.97;2.70;;;9.00;99.90;;;;;;4207048;28;20205;-76
2024/02/04 10:33:57;;;;;;;7.67;3.67;;;9.00;99.90;;;;;;4215324;28;20282;-80
2024/02/04 10:36:03;;;;;;;5.83;3.00;;;9.10;99.90;;;;;;4211601;28;20940;-81
2024/02/04 10:38:06;;;;;;;6.40;3.30;;;9.10;99.90;;;;;;4206603;28;20223;-81
2024/02/04 10:40:08;;;;;;;4.73;3.00;;;9.10;99.90;;;;;;4215711;28;20867;-81